Time;durP1;ratioP1;P1;durP2;ratioP2;P2;SDS_P1;SDS_P2;PMS_P1;PMS_P2;Temp;Humidity;BMP_temperature;BMP_pressure;BME280_temperature;BME280_humidity;BME280_pressure;Samples;Min_cycle;Max_cycle;Signal;HPM_P1;HPM_P2
2022/10/06 00:02:40;;;;;;;10.65;6.60;;;;;;;;;;4936422;29;20384;-76
2022/10/06 00:05:26;;;;;;;9.80;5.97;;;;;;;;;;4936523;29;20047;-76
2022/10/06 00:08:11;;;;;;;12.10;6.40;;;;;;;;;;4936518;29;20047;-76
2022/10/06 00:10:56;;;;;;;9.65;5.82;;;;;;;;;;4936584;29;20048;-79
2022/10/06 00:13:43;;;;;;;9.82;5.47;;;;;;;;;;4942084;29;20044;-77
2022/10/06 00:16:28;;;;;;;8.38;5.40;;;;;;;;;;4936926;29;20489;-77
2022/10/06 00:19:13;;;;;;;8.25;5.15;;;;;;;;;;4936959;29;20494;-76
2022/10/06 00:21:59;;;;;;;6.28;4.78;;;;;;;;;;4936540;29;20055;-76
2022/10/06 00:24:45;;;;;;;7.70;4.45;;;;;;;;;;4936758;29;20043;-75
2022/10/06 00:27:39;;;;;;;8.85;4.80;;;;;;;;;;4936286;29;20047;-78
2022/10/06 00:30:27;;;;;;;7.43;4.57;;;;;;;;;;4941979;29;20040;-77
2022/10/06 00:33:15;;;;;;;7.22;4.80;;;;;;;;;;4935468;29;20047;-76
2022/10/06 00:36:00;;;;;;;9.25;4.30;;;;;;;;;;4936454;29;20048;-76
2022/10/06 00:38:46;;;;;;;7.57;4.43;;;;;;;;;;4936438;29;20051;-76
2022/10/06 00:41:31;;;;;;;7.75;4.43;;;;;;;;;;4941637;29;20051;-76
2022/10/06 00:44:17;;;;;;;10.10;4.88;;;;;;;;;;4936493;29;20051;-76
2022/10/06 00:47:02;;;;;;;9.73;4.93;;;;;;;;;;4936366;29;20044;-77
2022/10/06 00:49:49;;;;;;;5.32;4.38;;;;;;;;;;4935950;29;20040;-77
2022/10/06 00:52:34;;;;;;;8.70;4.50;;;;;;;;;;4941711;29;20052;-75
2022/10/06 00:55:21;;;;;;;6.85;4.65;;;;;;;;;;4936253;29;20040;-76
2022/10/06 00:58:07;;;;;;;7.18;4.60;;;;;;;;;;4941616;29;20489;-76
2022/10/06 01:00:54;;;;;;;9.80;4.55;;;;;;;;;;4936113;29;20048;-77
2022/10/06 01:03:54;;;;;;;5.88;4.70;;;;;;;;;;4941469;29;20413;-77
2022/10/06 01:06:51;;;;;;;9.63;6.07;;;;;;;;;;4941771;29;20044;-75
2022/10/06 01:09:37;;;;;;;13.43;8.00;;;;;;;;;;4941305;29;20040;-76
2022/10/06 01:12:24;;;;;;;19.60;11.20;;;;;;;;;;4936218;29;20052;-76
2022/10/06 01:15:11;;;;;;;19.70;11.10;;;;;;;;;;4941458;29;20486;-76
2022/10/06 01:18:04;;;;;;;13.52;9.43;;;;;;;;;;4941517;29;20044;-76
2022/10/06 01:21:16;;;;;;;12.30;7.15;;;;;;;;;;4936093;29;20051;-76
2022/10/06 01:24:03;;;;;;;5.78;4.40;;;;;;;;;;4927963;29;20051;-76
2022/10/06 01:26:51;;;;;;;7.90;4.72;;;;;;;;;;4935197;29;20047;-76
2022/10/06 01:29:36;;;;;;;9.20;5.30;;;;;;;;;;4941545;29;20039;-76
2022/10/06 01:32:23;;;;;;;9.57;5.05;;;;;;;;;;4941369;29;20043;-76
2022/10/06 01:35:09;;;;;;;8.02;4.90;;;;;;;;;;4941656;29;20047;-76
2022/10/06 01:37:57;;;;;;;7.40;5.00;;;;;;;;;;4941111;29;20048;-76
2022/10/06 01:40:44;;;;;;;9.38;5.00;;;;;;;;;;4941239;29;20056;-76
2022/10/06 01:43:30;;;;;;;6.70;5.07;;;;;;;;;;4941250;29;20056;-76
2022/10/06 01:46:16;;;;;;;9.68;5.22;;;;;;;;;;4944788;29;20040;-75
2022/10/06 01:49:02;;;;;;;7.97;5.50;;;;;;;;;;4944264;29;20043;-76
2022/10/06 01:51:48;;;;;;;7.70;5.63;;;;;;;;;;4944428;29;20048;-76
2022/10/06 01:54:33;;;;;;;9.85;6.30;;;;;;;;;;4939328;29;20488;-76
2022/10/06 01:57:20;;;;;;;6.18;4.80;;;;;;;;;;4938899;29;20043;-76
2022/10/06 02:00:06;;;;;;;7.18;4.93;;;;;;;;;;4944716;29;20477;-75
2022/10/06 02:02:57;;;;;;;8.45;4.72;;;;;;;;;;4937765;29;20516;-79
2022/10/06 02:05:45;;;;;;;5.68;4.28;;;;;;;;;;4938858;29;20039;-78
2022/10/06 02:08:32;;;;;;;5.63;4.18;;;;;;;;;;4944600;29;20043;-75
2022/10/06 02:11:19;;;;;;;7.00;4.70;;;;;;;;;;4944023;29;20039;-75
2022/10/06 02:14:06;;;;;;;9.35;5.53;;;;;;;;;;4944458;29;20394;-75
2022/10/06 02:16:52;;;;;;;10.00;6.25;;;;;;;;;;4944118;29;20052;-76
2022/10/06 02:19:37;;;;;;;10.02;5.90;;;;;;;;;;4937550;29;20039;-75
2022/10/06 02:22:23;;;;;;;10.00;5.53;;;;;;;;;;4944154;29;20047;-75
2022/10/06 02:25:10;;;;;;;8.90;5.80;;;;;;;;;;4943849;29;20043;-77
2022/10/06 02:27:56;;;;;;;10.63;5.43;;;;;;;;;;4943896;29;20040;-76
2022/10/06 02:30:41;;;;;;;8.23;5.63;;;;;;;;;;4938281;29;20048;-75
2022/10/06 02:33:26;;;;;;;8.20;5.30;;;;;;;;;;4938229;29;20044;-77
2022/10/06 02:36:13;;;;;;;6.18;4.88;;;;;;;;;;4943715;29;20048;-75
2022/10/06 02:38:58;;;;;;;6.43;5.38;;;;;;;;;;4943597;29;20398;-76
2022/10/06 02:41:45;;;;;;;7.38;5.07;;;;;;;;;;4938413;29;20052;-75
2022/10/06 02:44:30;;;;;;;7.43;4.95;;;;;;;;;;4938617;29;20048;-75
2022/10/06 02:47:17;;;;;;;7.65;5.32;;;;;;;;;;4938034;29;20398;-76
2022/10/06 02:50:06;;;;;;;7.13;5.28;;;;;;;;;;4938407;29;20047;-76
2022/10/06 02:52:52;;;;;;;10.90;4.97;;;;;;;;;;4943287;29;20047;-77
2022/10/06 02:55:38;;;;;;;7.25;5.13;;;;;;;;;;4942883;29;20048;-77
2022/10/06 02:58:24;;;;;;;9.70;5.32;;;;;;;;;;4944083;29;20044;-77
2022/10/06 03:01:12;;;;;;;9.10;5.18;;;;;;;;;;4943269;29;20043;-76
2022/10/06 03:03:56;;;;;;;7.18;5.00;;;;;;;;;;4943196;29;20064;-76
2022/10/06 03:06:42;;;;;;;8.25;5.80;;;;;;;;;;4943427;29;20040;-76
2022/10/06 03:09:33;;;;;;;8.93;5.43;;;;;;;;;;4929233;29;20051;-77
2022/10/06 03:12:20;;;;;;;9.10;5.47;;;;;;;;;;4943039;29;20414;-77
2022/10/06 03:15:08;;;;;;;10.98;5.57;;;;;;;;;;4943023;29;20485;-77
2022/10/06 03:17:53;;;;;;;9.15;5.95;;;;;;;;;;4937902;29;20051;-77
2022/10/06 03:20:39;;;;;;;16.38;8.27;;;;;;;;;;4937188;29;20044;-76
2022/10/06 03:23:25;;;;;;;17.13;9.00;;;;;;;;;;4943058;29;20044;-76
2022/10/06 03:26:11;;;;;;;10.18;7.78;;;;;;;;;;4942872;29;20044;-76
2022/10/06 03:28:57;;;;;;;18.83;9.35;;;;;;;;;;4942583;29;20056;-76
2022/10/06 03:31:42;;;;;;;23.60;10.95;;;;;;;;;;4942358;29;20044;-77
2022/10/06 03:34:28;;;;;;;24.98;12.07;;;;;;;;;;4937153;29;20052;-76
2022/10/06 03:37:17;;;;;;;23.45;12.48;;;;;;;;;;4943419;29;20051;-76
2022/10/06 03:40:03;;;;;;;21.58;12.32;;;;;;;;;;4942797;29;20055;-77
2022/10/06 03:42:49;;;;;;;24.15;13.27;;;;;;;;;;4942575;29;20051;-77
2022/10/06 03:45:34;;;;;;;25.33;13.23;;;;;;;;;;4929289;29;20059;-77
2022/10/06 03:48:20;;;;;;;25.90;13.85;;;;;;;;;;4943326;29;20047;-76
2022/10/06 03:51:09;;;;;;;24.17;13.75;;;;;;;;;;4935428;29;20494;-76
2022/10/06 03:53:57;;;;;;;28.88;13.82;;;;;;;;;;4937024;29;20040;-76
2022/10/06 03:56:43;;;;;;;22.65;12.13;;;;;;;;;;4942138;29;20043;-76
2022/10/06 03:59:33;;;;;;;24.33;12.57;;;;;;;;;;4936918;29;20401;-76
2022/10/06 04:02:19;;;;;;;25.00;12.57;;;;;;;;;;4942472;29;20051;-76
2022/10/06 04:05:05;;;;;;;21.83;12.73;;;;;;;;;;4942046;29;20047;-76
2022/10/06 04:07:50;;;;;;;51.17;14.68;;;;;;;;;;4936645;29;20043;-77
2022/10/06 04:10:36;;;;;;;30.02;13.75;;;;;;;;;;4936608;29;20043;-76
2022/10/06 04:13:21;;;;;;;69.13;14.55;;;;;;;;;;4941849;29;20044;-77
2022/10/06 04:16:10;;;;;;;42.13;14.10;;;;;;;;;;4941916;29;20048;-76
2022/10/06 04:18:58;;;;;;;41.00;13.70;;;;;;;;;;4936457;29;20044;-77
2022/10/06 04:21:45;;;;;;;18.20;13.18;;;;;;;;;;4941811;29;20044;-76
2022/10/06 04:24:33;;;;;;;45.10;12.32;;;;;;;;;;4942219;29;20048;-76
2022/10/06 04:27:28;;;;;;;42.45;12.65;;;;;;;;;;4942039;29;20044;-78
2022/10/06 04:30:25;;;;;;;41.58;13.05;;;;;;;;;;4942298;29;20478;-76
2022/10/06 04:33:11;;;;;;;71.57;13.35;;;;;;;;;;4941265;29;20051;-76
2022/10/06 04:35:58;;;;;;;90.78;13.80;;;;;;;;;;4936309;29;20052;-77
2022/10/06 04:38:44;;;;;;;40.47;13.20;;;;;;;;;;4936190;29;20040;-78
2022/10/06 04:41:32;;;;;;;34.53;13.48;;;;;;;;;;4942201;29;20389;-77
2022/10/06 04:44:18;;;;;;;25.73;12.93;;;;;;;;;;4941827;29;20043;-75
2022/10/06 04:47:03;;;;;;;29.38;14.10;;;;;;;;;;4935307;29;20044;-78
2022/10/06 04:49:48;;;;;;;30.33;14.05;;;;;;;;;;4935281;29;20040;-77
2022/10/06 04:52:34;;;;;;;33.67;13.80;;;;;;;;;;4936141;29;20047;-76
2022/10/06 04:55:20;;;;;;;51.15;15.68;;;;;;;;;;4936755;29;20052;-77
2022/10/06 04:58:06;;;;;;;86.05;17.17;;;;;;;;;;4941271;29;20044;-76
2022/10/06 05:00:51;;;;;;;43.72;17.23;;;;;;;;;;4941478;29;20502;-76
2022/10/06 05:03:38;;;;;;;76.20;14.20;;;;;;;;;;4941552;29;20398;-77
2022/10/06 05:06:37;;;;;;;46.53;14.43;;;;;;;;;;4941118;29;20040;-77
2022/10/06 05:09:24;;;;;;;72.63;14.52;;;;;;;;;;4941236;29;20047;-77
2022/10/06 05:12:12;;;;;;;58.08;14.85;;;;;;;;;;4941062;29;20048;-77
2022/10/06 05:14:59;;;;;;;100.03;13.90;;;;;;;;;;4940616;29;20494;-76
2022/10/06 05:17:45;;;;;;;83.80;14.60;;;;;;;;;;4940786;29;20047;-77
2022/10/06 05:20:30;;;;;;;53.15;14.07;;;;;;;;;;4938544;29;20055;-76
2022/10/06 05:23:17;;;;;;;89.05;13.75;;;;;;;;;;4945083;29;20481;-76
2022/10/06 05:26:03;;;;;;;73.65;14.48;;;;;;;;;;4944593;29;20043;-76
2022/10/06 05:28:49;;;;;;;73.82;15.48;;;;;;;;;;4943430;29;20047;-76
2022/10/06 05:31:39;;;;;;;103.43;14.63;;;;;;;;;;4943311;29;20059;-76
2022/10/06 05:34:25;;;;;;;139.65;15.93;;;;;;;;;;4944167;29;20059;-76
2022/10/06 05:37:11;;;;;;;51.75;15.02;;;;;;;;;;4939512;29;20055;-76
2022/10/06 05:39:56;;;;;;;72.20;15.35;;;;;;;;;;4938354;29;20040;-76
2022/10/06 05:42:41;;;;;;;36.38;18.35;;;;;;;;;;4944089;29;20055;-76
2022/10/06 05:45:26;;;;;;;41.25;14.38;;;;;;;;;;4939337;29;20048;-77
2022/10/06 05:48:12;;;;;;;77.50;14.27;;;;;;;;;;4944565;29;20044;-77
2022/10/06 05:51:06;;;;;;;47.75;13.77;;;;;;;;;;4938777;29;20505;-77
2022/10/06 05:53:52;;;;;;;66.85;15.43;;;;;;;;;;4944343;29;20048;-76
2022/10/06 05:56:37;;;;;;;31.75;14.25;;;;;;;;;;4944212;29;20043;-76
2022/10/06 05:59:22;;;;;;;29.13;12.77;;;;;;;;;;4938931;29;20043;-77
2022/10/06 06:02:08;;;;;;;73.40;13.80;;;;;;;;;;4943866;29;20043;-76
2022/10/06 06:04:58;;;;;;;32.42;13.35;;;;;;;;;;4944168;29;20055;-76
2022/10/06 06:07:44;;;;;;;56.25;15.07;;;;;;;;;;4939173;29;20048;-77
2022/10/06 06:10:31;;;;;;;42.35;17.02;;;;;;;;;;4930650;29;20051;-77
2022/10/06 06:13:22;;;;;;;28.85;16.02;;;;;;;;;;4943897;29;20044;-76
2022/10/06 06:16:22;;;;;;;25.30;15.02;;;;;;;;;;4945140;29;20036;-76
2022/10/06 06:19:09;;;;;;;26.50;14.75;;;;;;;;;;4943181;29;20044;-76
2022/10/06 06:21:56;;;;;;;34.65;14.68;;;;;;;;;;4943844;29;20052;-75
2022/10/06 06:24:41;;;;;;;49.20;14.35;;;;;;;;;;4943955;29;20048;-75
2022/10/06 06:27:28;;;;;;;24.73;13.88;;;;;;;;;;4943633;29;20051;-77
2022/10/06 06:30:14;;;;;;;28.38;13.88;;;;;;;;;;4943559;29;20039;-77
2022/10/06 06:32:59;;;;;;;38.30;15.68;;;;;;;;;;4930117;29;20401;-76
2022/10/06 06:35:45;;;;;;;43.67;16.20;;;;;;;;;;4943664;29;20055;-76
2022/10/06 06:38:30;;;;;;;79.32;15.93;;;;;;;;;;4943632;29;20043;-75
2022/10/06 06:41:22;;;;;;;54.67;16.92;;;;;;;;;;4942948;29;20398;-75
2022/10/06 06:44:12;;;;;;;;;;;;;;;;;;4944409;29;20047;-76
2022/10/06 06:47:02;;;;;;;25.80;15.40;;;;;;;;;;4943163;29;19914;-76
2022/10/06 06:49:48;;;;;;;38.65;20.58;;;;;;;;;;4940631;29;20048;-74
2022/10/06 06:52:33;;;;;;;38.85;18.52;;;;;;;;;;4937662;29;20410;-75
2022/10/06 06:55:18;;;;;;;35.25;18.90;;;;;;;;;;4943057;29;20490;-75
2022/10/06 06:58:04;;;;;;;33.78;19.88;;;;;;;;;;4937984;29;20039;-78
2022/10/06 07:00:49;;;;;;;41.55;19.80;;;;;;;;;;4942986;29;20044;-73
2022/10/06 07:03:35;;;;;;;32.80;18.70;;;;;;;;;;4943081;29;20051;-73
2022/10/06 07:06:21;;;;;;;38.10;18.67;;;;;;;;;;4943101;29;20486;-75
2022/10/06 07:09:08;;;;;;;35.47;18.05;;;;;;;;;;4942558;29;20044;-76
2022/10/06 07:11:54;;;;;;;33.45;17.83;;;;;;;;;;4942858;29;20044;-78
2022/10/06 07:25:05;;;;;;;30.30;15.35;;;;;;;;;;4937478;29;20051;-77
2022/10/06 07:27:02;;;;;;;29.27;18.73;;;;;;;;;;4942597;29;20048;-75
2022/10/06 07:29:53;;;;;;;31.25;18.17;;;;;;;;;;4936970;29;20048;-75
2022/10/06 07:32:39;;;;;;;30.27;18.33;;;;;;;;;;4942471;29;20051;-74
2022/10/06 07:35:25;;;;;;;33.95;20.75;;;;;;;;;;4941725;29;20051;-76
2022/10/06 07:38:10;;;;;;;32.65;20.33;;;;;;;;;;4941863;29;20036;-77
2022/10/06 07:41:00;;;;;;;35.83;19.98;;;;;;;;;;4937302;29;20047;-77
2022/10/06 07:43:48;;;;;;;29.00;16.60;;;;;;;;;;4936172;29;20374;-77
2022/10/06 07:46:34;;;;;;;21.48;14.20;;;;;;;;;;4941519;29;20051;-75
2022/10/06 07:49:46;;;;;;;22.77;14.85;;;;;;;;;;4940128;29;20039;-78
2022/10/06 07:52:32;;;;;;;24.45;15.35;;;;;;;;;;4941361;29;20048;-76
2022/10/06 07:55:17;;;;;;;22.92;14.90;;;;;;;;;;4942256;29;20047;-78
2022/10/06 07:58:23;;;;;;;19.13;13.10;;;;;;;;;;4936323;29;20044;-76
2022/10/06 08:01:12;;;;;;;21.23;13.30;;;;;;;;;;4936825;29;20405;-75
2022/10/06 08:03:57;;;;;;;25.42;14.48;;;;;;;;;;4936917;29;20048;-75
2022/10/06 08:06:42;;;;;;;21.65;13.27;;;;;;;;;;4942396;29;20402;-76
2022/10/06 08:09:29;;;;;;;13.80;9.52;;;;;;;;;;4936567;29;20397;-77
2022/10/06 08:12:33;;;;;;;16.20;9.77;;;;;;;;;;4936050;29;20055;-75
2022/10/06 08:15:18;;;;;;;16.63;10.65;;;;;;;;;;4936658;29;20048;-76
2022/10/06 08:18:04;;;;;;;26.00;12.88;;;;;;;;;;4942956;29;20051;-75
2022/10/06 08:20:49;;;;;;;17.88;11.32;;;;;;;;;;4941354;29;20394;-78
2022/10/06 08:23:39;;;;;;;13.55;9.35;;;;;;;;;;4936319;29;20051;-77
2022/10/06 08:26:26;;;;;;;12.10;7.40;;;;;;;;;;4936425;29;20502;-76
2022/10/06 08:29:12;;;;;;;14.75;10.15;;;;;;;;;;4942586;29;20043;-76
2022/10/06 08:31:58;;;;;;;26.52;17.23;;;;;;;;;;4942711;29;20490;-78
2022/10/06 08:34:43;;;;;;;49.95;29.17;;;;;;;;;;4935691;29;20494;-77
2022/10/06 08:37:28;;;;;;;17.85;11.50;;;;;;;;;;4936384;29;20040;-77
2022/10/06 08:40:14;;;;;;;18.98;10.73;;;;;;;;;;4935825;29;20056;-77
2022/10/06 08:43:01;;;;;;;28.73;18.45;;;;;;;;;;4936032;29;20059;-77
2022/10/06 08:45:47;;;;;;;31.73;18.33;;;;;;;;;;4936198;29;20040;-77
2022/10/06 08:48:37;;;;;;;24.95;16.38;;;;;;;;;;4935551;29;20039;-75
2022/10/06 08:51:43;;;;;;;23.55;14.45;;;;;;;;;;4941516;29;20047;-74
2022/10/06 08:54:41;;;;;;;26.70;11.38;;;;;;;;;;4935834;29;20059;-78
2022/10/06 08:57:35;;;;;;;16.30;12.07;;;;;;;;;;4938507;29;20052;-77
2022/10/06 09:00:21;;;;;;;15.35;11.05;;;;;;;;;;4938865;29;20398;-77
2022/10/06 09:03:18;;;;;;;14.00;7.78;;;;;;;;;;4938275;29;20398;-74
2022/10/06 09:06:12;;;;;;;12.98;6.55;;;;;;;;;;4938561;29;20043;-75
2022/10/06 09:09:07;;;;;;;13.13;8.35;;;;;;;;;;4944549;29;20390;-77
2022/10/06 09:11:58;;;;;;;;;;;;;;;;;;4938641;29;20039;-76
2022/10/06 09:14:49;;;;;;;11.15;7.00;;;;;;;;;;4945071;29;19918;-77
2022/10/06 09:17:40;;;;;;;9.90;7.05;;;;;;;;;;4938026;29;20043;-75
2022/10/06 09:20:35;;;;;;;10.10;7.15;;;;;;;;;;4944665;29;20433;-75
2022/10/06 09:24:07;;;;;;;19.70;9.80;;;;;;;;;;4944161;29;20389;-77
2022/10/06 09:26:30;;;;;;;13.30;7.25;;;;;;;;;;4936126;29;20513;-77
2022/10/06 09:29:16;;;;;;;11.70;6.85;;;;;;;;;;4938462;29;20051;-77
2022/10/06 09:32:01;;;;;;;24.98;7.18;;;;;;;;;;4937504;29;20048;-76
2022/10/06 09:34:55;;;;;;;15.40;7.22;;;;;;;;;;4938420;29;20055;-75
2022/10/06 09:38:02;;;;;;;13.60;6.15;;;;;;;;;;4938202;29;20044;-77
2022/10/06 09:40:52;;;;;;;11.27;6.38;;;;;;;;;;4938327;29;20052;-77
2022/10/06 09:43:38;;;;;;;12.25;6.47;;;;;;;;;;4938295;29;20040;-75
2022/10/06 09:46:28;;;;;;;11.77;6.57;;;;;;;;;;4937669;29;20043;-77
2022/10/06 09:49:26;;;;;;;9.40;6.47;;;;;;;;;;4896693;29;1218322;-74
2022/10/06 09:52:14;;;;;;;11.60;5.85;;;;;;;;;;4938540;29;20401;-77
2022/10/06 09:55:11;;;;;;;12.23;6.13;;;;;;;;;;4939019;29;20056;-77
2022/10/06 09:57:57;;;;;;;7.68;5.30;;;;;;;;;;4939059;29;20043;-77
2022/10/06 10:01:07;;;;;;;11.45;6.60;;;;;;;;;;4938412;29;20048;-76
2022/10/06 10:04:03;;;;;;;9.90;7.28;;;;;;;;;;4939050;29;20437;-75
2022/10/06 10:06:50;;;;;;;9.38;6.05;;;;;;;;;;4937841;29;20043;-74
2022/10/06 10:09:35;;;;;;;17.50;7.07;;;;;;;;;;4939023;29;20056;-73
2022/10/06 10:12:24;;;;;;;58.33;12.40;;;;;;;;;;4944879;29;20063;-73
2022/10/06 10:15:32;;;;;;;16.02;6.78;;;;;;;;;;4938096;29;20047;-73
2022/10/06 10:18:25;;;;;;;12.48;7.57;;;;;;;;;;4938673;29;20048;-73
2022/10/06 10:21:10;;;;;;;10.82;6.20;;;;;;;;;;4938482;29;20482;-73
2022/10/06 10:23:57;;;;;;;8.25;5.50;;;;;;;;;;4944920;29;20051;-76
2022/10/06 10:27:22;;;;;;;10.77;5.95;;;;;;;;;;4938641;29;20043;-75
2022/10/06 10:30:10;;;;;;;11.23;5.85;;;;;;;;;;4910503;29;20047;-74
2022/10/06 10:32:59;;;;;;;12.40;5.60;;;;;;;;;;4944524;29;20044;-74
2022/10/06 10:35:50;;;;;;;12.60;6.10;;;;;;;;;;4937797;29;20431;-74
2022/10/06 10:38:41;;;;;;;8.05;5.72;;;;;;;;;;4938192;29;20047;-73
2022/10/06 10:41:37;;;;;;;8.32;5.38;;;;;;;;;;4938001;29;20040;-76
2022/10/06 10:44:36;;;;;;;10.27;6.00;;;;;;;;;;4944462;29;20494;-77
2022/10/06 10:47:26;;;;;;;9.18;6.10;;;;;;;;;;4938042;29;20401;-74
2022/10/06 10:50:27;;;;;;;10.15;5.95;;;;;;;;;;4937033;29;20051;-74
2022/10/06 10:53:24;;;;;;;10.75;6.68;;;;;;;;;;4937820;29;20055;-74
2022/10/06 10:56:12;;;;;;;13.20;5.85;;;;;;;;;;4937701;29;20036;-75
2022/10/06 10:59:20;;;;;;;8.20;5.43;;;;;;;;;;4937969;29;20056;-75
2022/10/06 11:02:12;;;;;;;11.45;6.55;;;;;;;;;;4944136;29;20047;-75
2022/10/06 11:05:03;;;;;;;9.60;5.97;;;;;;;;;;4937344;29;20048;-73
2022/10/06 11:08:06;;;;;;;21.15;8.23;;;;;;;;;;4937819;29;20040;-72
2022/10/06 11:11:07;;;;;;;15.30;7.05;;;;;;;;;;4937267;29;20111;-73
2022/10/06 11:13:58;;;;;;;10.65;5.95;;;;;;;;;;4937608;29;20048;-73
2022/10/06 11:16:54;;;;;;;9.77;5.70;;;;;;;;;;4943422;29;20378;-75
2022/10/06 11:20:07;;;;;;;11.25;6.07;;;;;;;;;;4943939;29;20047;-74
2022/10/06 11:22:57;;;;;;;15.82;6.00;;;;;;;;;;4943974;29;20043;-74
2022/10/06 11:26:03;;;;;;;9.20;6.07;;;;;;;;;;4936563;29;20051;-75
2022/10/06 11:28:59;;;;;;;11.55;5.53;;;;;;;;;;4937389;29;20406;-75
2022/10/06 11:32:03;;;;;;;8.73;5.28;;;;;;;;;;4936661;29;20052;-74
2022/10/06 11:34:50;;;;;;;7.82;4.90;;;;;;;;;;4943622;29;20051;-73
2022/10/06 11:37:46;;;;;;;9.70;4.97;;;;;;;;;;4943628;29;20047;-75
2022/10/06 11:40:57;;;;;;;7.75;5.07;;;;;;;;;;4936773;29;20055;-75
2022/10/06 11:43:48;;;;;;;7.82;4.88;;;;;;;;;;4936319;29;20063;-80
2022/10/06 11:46:43;;;;;;;13.55;5.15;;;;;;;;;;4936386;29;20044;-80
2022/10/06 11:49:29;;;;;;;9.45;5.00;;;;;;;;;;4936891;29;20374;-79
2022/10/06 11:52:14;;;;;;;11.98;5.43;;;;;;;;;;4936676;29;20035;-79
2022/10/06 11:55:19;;;;;;;10.05;5.40;;;;;;;;;;4936700;29;20051;-80
2022/10/06 11:58:09;;;;;;;9.57;5.30;;;;;;;;;;4936748;29;20048;-79
2022/10/06 12:00:54;;;;;;;7.47;5.10;;;;;;;;;;4936202;29;20051;-81
2022/10/06 12:03:45;;;;;;;14.68;6.22;;;;;;;;;;4936954;29;20504;-83
2022/10/06 12:09:38;;;;;;;9.18;5.65;;;;;;;;;;4943057;29;20047;-76
2022/10/06 12:12:23;;;;;;;8.68;5.20;;;;;;;;;;4936452;29;20502;-74
2022/10/06 12:15:18;;;;;;;9.55;5.47;;;;;;;;;;4935741;29;20449;-76
2022/10/06 12:18:24;;;;;;;13.18;6.53;;;;;;;;;;4936644;29;20422;-74
2022/10/06 12:21:33;;;;;;;14.20;6.25;;;;;;;;;;4936131;29;20489;-74
2022/10/06 12:24:43;;;;;;;8.68;6.07;;;;;;;;;;4936440;29;20048;-76
2022/10/06 12:27:36;;;;;;;7.88;5.03;;;;;;;;;;4936164;29;20047;-74
2022/10/06 12:30:59;;;;;;;9.65;4.50;;;;;;;;;;4936198;29;20036;-76
2022/10/06 12:33:45;;;;;;;6.00;3.30;;;;;;;;;;4936116;29;20048;-77
2022/10/06 12:36:31;;;;;;;6.65;3.40;;;;;;;;;;4935727;29;20401;-76
2022/10/06 12:39:23;;;;;;;8.32;3.42;;;;;;;;;;4936074;29;20048;-74
2022/10/06 12:42:27;;;;;;;6.28;3.53;;;;;;;;;;4936213;29;20052;-75
2022/10/06 12:45:18;;;;;;;7.13;3.80;;;;;;;;;;4936084;29;20047;-75
2022/10/06 12:48:04;;;;;;;7.63;4.35;;;;;;;;;;4941374;29;20043;-73
2022/10/06 12:51:05;;;;;;;10.55;3.85;;;;;;;;;;4936711;29;20418;-73
2022/10/06 12:54:10;;;;;;;7.47;3.95;;;;;;;;;;4942631;29;20048;-73
2022/10/06 12:57:12;;;;;;;8.90;3.53;;;;;;;;;;4935561;29;20044;-74
2022/10/06 12:59:57;;;;;;;13.35;3.47;;;;;;;;;;4936154;29;20060;-74
2022/10/06 13:02:43;;;;;;;8.82;3.78;;;;;;;;;;4942606;29;20047;-74
2022/10/06 13:05:29;;;;;;;7.38;3.50;;;;;;;;;;4935484;29;20048;-74
2022/10/06 13:08:23;;;;;;;5.85;2.92;;;;;;;;;;4936133;29;20051;-74
2022/10/06 13:11:21;;;;;;;4.20;2.40;;;;;;;;;;4935348;29;20044;-74
2022/10/06 13:14:11;;;;;;;7.32;3.78;;;;;;;;;;4936017;29;20040;-74
2022/10/06 13:16:58;;;;;;;6.80;3.30;;;;;;;;;;4942528;29;20055;-82
2022/10/06 13:19:43;;;;;;;7.32;3.25;;;;;;;;;;4936293;29;20056;-74
2022/10/06 13:22:29;;;;;;;10.57;3.75;;;;;;;;;;4936060;29;20481;-74
2022/10/06 13:25:15;;;;;;;10.32;5.13;;;;;;;;;;4935749;29;20047;-74
2022/10/06 13:28:01;;;;;;;7.97;3.88;;;;;;;;;;4935734;29;20040;-74
2022/10/06 13:31:21;;;;;;;7.10;3.42;;;;;;;;;;4935732;29;20059;-73
2022/10/06 13:34:11;;;;;;;9.20;4.30;;;;;;;;;;4941391;29;20059;-74
2022/10/06 13:36:58;;;;;;;15.02;6.13;;;;;;;;;;4935612;29;20047;-73
2022/10/06 13:39:43;;;;;;;7.45;3.22;;;;;;;;;;4935551;29;20048;-74
2022/10/06 13:42:29;;;;;;;4.43;3.13;;;;;;;;;;4939160;29;20486;-73
2022/10/06 13:45:15;;;;;;;7.20;2.85;;;;;;;;;;4938935;29;20047;-74
2022/10/06 13:48:20;;;;;;;7.00;3.63;;;;;;;;;;4938481;29;20048;-73
2022/10/06 13:51:12;;;;;;;8.73;4.05;;;;;;;;;;4938333;29;20059;-74
2022/10/06 13:54:02;;;;;;;7.22;4.30;;;;;;;;;;4937867;29;20043;-74
2022/10/06 13:56:48;;;;;;;11.75;4.30;;;;;;;;;;4938885;29;20035;-74
2022/10/06 13:59:37;;;;;;;7.32;3.83;;;;;;;;;;4938458;29;20068;-75
2022/10/06 14:02:31;;;;;;;9.10;4.82;;;;;;;;;;4938026;29;20048;-75
2022/10/06 14:05:28;;;;;;;14.50;8.63;;;;;;;;;;4944065;29;20063;-74
2022/10/06 14:08:14;;;;;;;14.98;5.80;;;;;;;;;;4944520;29;20044;-75
2022/10/06 14:11:04;;;;;;;9.50;5.10;;;;;;;;;;4937510;29;20397;-73
2022/10/06 14:14:14;;;;;;;11.00;4.93;;;;;;;;;;4937665;29;20052;-74
2022/10/06 14:16:59;;;;;;;8.30;4.13;;;;;;;;;;4937940;29;20060;-75
2022/10/06 14:19:45;;;;;;;6.72;3.90;;;;;;;;;;4943933;29;20055;-75
2022/10/06 14:22:37;;;;;;;8.00;4.32;;;;;;;;;;4944497;29;20047;-75
2022/10/06 14:25:23;;;;;;;6.88;4.18;;;;;;;;;;4938390;29;20044;-73
2022/10/06 14:28:09;;;;;;;9.13;4.88;;;;;;;;;;4937891;29;20478;-74
2022/10/06 14:30:56;;;;;;;17.08;7.18;;;;;;;;;;4937711;29;20453;-75
2022/10/06 14:33:42;;;;;;;32.85;12.85;;;;;;;;;;4937409;29;20052;-74
2022/10/06 14:36:30;;;;;;;20.70;10.85;;;;;;;;;;4944183;29;20047;-73
2022/10/06 14:39:16;;;;;;;16.27;8.48;;;;;;;;;;4944419;29;20060;-74
2022/10/06 14:42:02;;;;;;;9.57;4.88;;;;;;;;;;4937972;29;20052;-74
2022/10/06 14:44:47;;;;;;;8.75;4.50;;;;;;;;;;4937224;29;20055;-75
2022/10/06 14:47:33;;;;;;;10.93;3.65;;;;;;;;;;4944157;29;20059;-74
2022/10/06 14:50:19;;;;;;;11.65;5.93;;;;;;;;;;4940456;29;20043;-74
2022/10/06 14:53:04;;;;;;;13.27;7.15;;;;;;;;;;4935065;29;20047;-75
2022/10/06 14:55:49;;;;;;;12.40;5.30;;;;;;;;;;4943294;29;20047;-75
2022/10/06 14:58:36;;;;;;;9.82;5.82;;;;;;;;;;4936439;29;20043;-75
2022/10/06 15:01:24;;;;;;;12.57;6.05;;;;;;;;;;4937587;29;20051;-74
2022/10/06 15:04:15;;;;;;;16.98;8.32;;;;;;;;;;4937720;29;20051;-74
2022/10/06 15:10:20;;;;;;;12.70;5.25;;;;;;;;;;4916541;29;20043;-74
2022/10/06 15:13:07;;;;;;;16.58;6.22;;;;;;;;;;4936853;29;20466;-75
2022/10/06 15:15:58;;;;;;;18.25;7.20;;;;;;;;;;4937167;29;20048;-74
2022/10/06 15:18:43;;;;;;;12.10;6.47;;;;;;;;;;4936983;29;20044;-75
2022/10/06 15:21:30;;;;;;;18.10;7.22;;;;;;;;;;4936990;29;20401;-74
2022/10/06 15:24:17;;;;;;;16.40;7.00;;;;;;;;;;4943879;29;20052;-76
2022/10/06 15:30:07;;;;;;;13.65;7.15;;;;;;;;;;4936742;29;20039;-74
2022/10/06 15:32:53;;;;;;;17.58;7.40;;;;;;;;;;4936878;29;20051;-74
2022/10/06 15:35:39;;;;;;;9.90;5.72;;;;;;;;;;4936860;29;20047;-74
2022/10/06 15:38:24;;;;;;;15.10;5.72;;;;;;;;;;4937288;29;20063;-74
2022/10/06 15:41:11;;;;;;;9.90;5.40;;;;;;;;;;4942977;29;20048;-74
2022/10/06 15:43:57;;;;;;;9.85;4.65;;;;;;;;;;4937044;29;20051;-73
2022/10/06 15:46:53;;;;;;;8.30;5.32;;;;;;;;;;4937018;29;20048;-75
2022/10/06 15:49:40;;;;;;;15.85;7.05;;;;;;;;;;4936012;29;20052;-74
2022/10/06 15:52:26;;;;;;;21.35;7.65;;;;;;;;;;4936982;29;20039;-74
2022/10/06 15:55:11;;;;;;;41.95;23.88;;;;;;;;;;4936383;29;20398;-74
2022/10/06 15:57:56;;;;;;;56.58;28.05;;;;;;;;;;4935686;29;20048;-74
2022/10/06 16:00:42;;;;;;;41.97;22.05;;;;;;;;;;4943168;29;20048;-75
2022/10/06 16:03:35;;;;;;;48.50;28.30;;;;;;;;;;4941874;29;20051;-75
2022/10/06 16:06:29;;;;;;;40.60;21.75;;;;;;;;;;4936642;29;20051;-75
2022/10/06 16:09:16;;;;;;;32.63;17.27;;;;;;;;;;4936120;29;20052;-74
2022/10/06 16:12:03;;;;;;;33.75;20.10;;;;;;;;;;4936499;29;20048;-75
2022/10/06 16:14:48;;;;;;;41.28;23.00;;;;;;;;;;4936135;29;20047;-75
2022/10/06 16:17:33;;;;;;;49.42;24.00;;;;;;;;;;4935813;29;20425;-73
2022/10/06 16:20:19;;;;;;;56.05;24.42;;;;;;;;;;4936475;29;20043;-75
2022/10/06 16:23:05;;;;;;;92.97;41.85;;;;;;;;;;4935869;29;20047;-74
2022/10/06 16:25:50;;;;;;;42.10;20.42;;;;;;;;;;4935734;29;20490;-73
2022/10/06 16:28:35;;;;;;;32.33;15.23;;;;;;;;;;4936212;29;20043;-74
2022/10/06 16:31:21;;;;;;;27.25;13.90;;;;;;;;;;4935243;29;20401;-74
2022/10/06 16:34:06;;;;;;;25.60;11.95;;;;;;;;;;4935947;29;20055;-74
2022/10/06 16:36:51;;;;;;;46.75;29.00;;;;;;;;;;4934965;29;20051;-74
2022/10/06 16:39:37;;;;;;;24.63;12.85;;;;;;;;;;4935746;29;20043;-73
2022/10/06 16:42:23;;;;;;;19.77;11.13;;;;;;;;;;4942540;29;20043;-74
2022/10/06 16:45:09;;;;;;;23.73;13.48;;;;;;;;;;4935718;29;20502;-74
2022/10/06 16:47:54;;;;;;;28.30;15.85;;;;;;;;;;4935615;29;20040;-75
2022/10/06 16:50:40;;;;;;;46.20;25.35;;;;;;;;;;4936063;29;20047;-73
2022/10/06 16:53:26;;;;;;;47.10;26.85;;;;;;;;;;4935167;29;20501;-75
2022/10/06 16:56:26;;;;;;;71.72;38.10;;;;;;;;;;4935663;29;20048;-78
2022/10/06 16:59:20;;;;;;;77.45;39.03;;;;;;;;;;4940192;29;20047;-79
2022/10/06 17:02:07;;;;;;;;;;;;;;;;;;4936503;29;20051;-78